createdAt,value
2023-05-20T00:00:05.333Z,19.80
2023-05-20T00:02:40.714Z,20.30
2023-05-20T00:05:14.456Z,20.80
2023-05-20T00:10:18.690Z,19.70
2023-05-20T00:12:51.491Z,19.10
2023-05-20T00:15:24.491Z,19.40
2023-05-20T00:17:57.521Z,21.30
2023-05-20T00:20:30.332Z,23.00
2023-05-20T00:23:24.562Z,23.90
2023-05-20T00:25:59.808Z,23.50
2023-05-20T00:28:34.006Z,24.50
2023-05-20T00:31:08.383Z,26.00
2023-05-20T00:33:42.011Z,25.20
2023-05-20T00:36:14.701Z,26.30
2023-05-20T00:38:47.299Z,24.50
2023-05-20T00:41:20.056Z,25.00
2023-05-20T00:43:54.883Z,25.90
2023-05-20T00:46:29.092Z,27.50
2023-05-20T00:49:02.154Z,28.80
2023-05-20T00:51:35.390Z,27.70
2023-05-20T00:54:07.970Z,28.90
2023-05-20T00:56:41.646Z,31.70
2023-05-20T00:59:14.704Z,28.30
2023-05-20T01:01:47.975Z,28.30
2023-05-20T01:04:21.745Z,28.50
2023-05-20T01:09:26.664Z,28.00
2023-05-20T01:12:06.742Z,28.00
2023-05-20T01:14:45.712Z,29.00
2023-05-20T01:17:22.069Z,29.40
2023-05-20T01:20:00.326Z,29.70
2023-05-20T01:22:34.228Z,30.30
2023-05-20T01:25:09.122Z,29.80
2023-05-20T01:27:42.072Z,28.40
2023-05-20T01:30:16.086Z,28.30
2023-05-20T01:32:57.843Z,26.10
2023-05-20T01:35:32.409Z,25.50
2023-05-20T01:38:08.062Z,25.90
2023-05-20T01:40:43.536Z,25.20
2023-05-20T01:43:17.924Z,24.40
2023-05-20T01:45:50.726Z,24.90
2023-05-20T01:48:23.566Z,23.10
2023-05-20T01:50:58.049Z,21.30
2023-05-20T01:53:31.618Z,22.40
2023-05-20T01:56:04.345Z,21.30
2023-05-20T01:58:37.584Z,22.10
2023-05-20T02:01:12.502Z,23.20
2023-05-20T02:03:49.668Z,22.20
2023-05-20T02:06:26.985Z,23.30
2023-05-20T02:09:04.160Z,21.60
2023-05-20T02:11:37.117Z,21.10
2023-05-20T02:14:10.764Z,20.50
2023-05-20T02:16:43.496Z,19.80
2023-05-20T02:19:24.190Z,19.80
2023-05-20T02:21:57.152Z,20.30
2023-05-20T02:24:30.389Z,19.80
2023-05-20T02:27:03.686Z,20.70
2023-05-20T02:29:37.490Z,21.40
2023-05-20T02:32:10.650Z,21.60
2023-05-20T02:34:43.504Z,22.90
2023-05-20T02:37:16.135Z,24.20
2023-05-20T02:39:49.068Z,23.50
2023-05-20T02:42:22.044Z,25.10
2023-05-20T02:44:58.998Z,25.40
2023-05-20T02:47:31.707Z,25.00
2023-05-20T02:50:06.010Z,25.20
2023-05-20T02:52:40.429Z,25.70
2023-05-20T02:55:13.934Z,26.20
2023-05-20T03:00:19.494Z,24.20
2023-05-20T03:02:52.350Z,24.80
2023-05-20T03:05:25.350Z,26.60
2023-05-20T03:07:58.235Z,25.80
2023-05-20T03:10:31.299Z,27.00
2023-05-20T03:13:08.867Z,26.50
2023-05-20T03:15:47.126Z,28.20
2023-05-20T03:18:19.946Z,26.00
2023-05-20T03:20:52.609Z,28.90
2023-05-20T03:23:25.448Z,29.10
2023-05-20T03:25:59.926Z,28.90
2023-05-20T03:28:33.453Z,29.00
2023-05-20T03:31:07.047Z,31.40
2023-05-20T03:33:40.240Z,30.60
2023-05-20T03:36:16.112Z,32.00
2023-05-20T03:38:49.084Z,27.70
2023-05-20T03:41:23.975Z,27.80
2023-05-20T03:43:57.637Z,29.40
2023-05-20T03:49:04.461Z,29.20
2023-05-20T03:51:38.113Z,30.50
2023-05-20T03:54:17.031Z,27.80
2023-05-20T03:56:52.433Z,30.30
2023-05-20T03:59:25.093Z,30.20
2023-05-20T04:01:57.849Z,30.70
2023-05-20T04:04:30.907Z,32.90
2023-05-20T04:07:08.341Z,29.70
2023-05-20T04:09:41.829Z,29.40
2023-05-20T04:12:14.326Z,30.10
2023-05-20T04:14:47.094Z,28.70
2023-05-20T04:17:21.577Z,29.90
2023-05-20T04:19:54.575Z,31.10
2023-05-20T04:22:29.246Z,30.00
2023-05-20T04:25:03.848Z,28.90
2023-05-20T04:27:38.089Z,30.90
2023-05-20T04:30:12.333Z,31.40
2023-05-20T04:32:46.625Z,28.80
2023-05-20T04:35:19.715Z,29.40
2023-05-20T04:37:55.925Z,29.80
2023-05-20T04:40:29.159Z,29.80
2023-05-20T04:43:04.610Z,29.30
2023-05-20T04:45:39.254Z,29.20
2023-05-20T04:48:11.925Z,30.70
2023-05-20T04:50:46.618Z,29.20
2023-05-20T04:53:19.710Z,29.60
2023-05-20T04:55:54.340Z,29.00
2023-05-20T04:58:26.977Z,28.40
2023-05-20T05:01:01.880Z,29.30
2023-05-20T05:03:36.668Z,29.70
2023-05-20T05:06:10.480Z,27.60
2023-05-20T05:08:45.139Z,30.40
2023-05-20T05:11:18.464Z,26.90
2023-05-20T05:13:52.126Z,28.60
2023-05-20T05:16:27.599Z,29.00
2023-05-20T05:19:00.498Z,28.80
2023-05-20T05:21:35.300Z,28.50
2023-05-20T05:24:08.605Z,29.10
2023-05-20T05:26:41.640Z,28.60
2023-05-20T05:31:48.300Z,28.80
2023-05-20T05:34:22.914Z,28.90
2023-05-20T05:36:55.665Z,29.60
2023-05-20T05:39:28.432Z,27.60
2023-05-20T05:42:01.797Z,28.50
2023-05-20T05:44:36.211Z,27.10
2023-05-20T05:47:10.505Z,28.60
2023-05-20T05:49:44.598Z,29.00
2023-05-20T05:54:52.498Z,26.90
2023-05-20T05:57:25.408Z,28.20
2023-05-20T06:02:30.558Z,27.20
2023-05-20T06:07:35.051Z,26.20
2023-05-20T06:10:13.419Z,26.50
2023-05-20T06:12:46.207Z,26.30
2023-05-20T06:15:19.295Z,27.10
2023-05-20T06:17:53.845Z,27.60
2023-05-20T06:20:26.913Z,28.10
2023-05-20T06:23:00.064Z,25.20
2023-05-20T06:25:40.537Z,24.20
2023-05-20T06:28:15.163Z,27.40
2023-05-20T06:30:48.470Z,26.80
2023-05-20T06:33:26.353Z,26.60
2023-05-20T06:36:01.999Z,27.10
2023-05-20T06:38:35.087Z,26.80
2023-05-20T06:41:10.054Z,25.90
2023-05-20T06:43:42.988Z,26.50
2023-05-20T06:46:24.398Z,21.90
2023-05-20T06:49:01.489Z,27.20
2023-05-20T06:51:38.171Z,25.00
2023-05-20T06:54:11.369Z,26.70
2023-05-20T06:56:45.773Z,25.60
2023-05-20T06:59:20.138Z,24.70
2023-05-20T07:01:56.195Z,26.10
2023-05-20T07:04:29.188Z,25.40
2023-05-20T07:07:02.148Z,24.60
2023-05-20T07:09:35.009Z,25.20
2023-05-20T07:12:09.046Z,25.70
2023-05-20T07:14:42.009Z,26.30
2023-05-20T07:17:15.301Z,26.20
2023-05-20T07:19:49.043Z,26.00
2023-05-20T07:22:22.625Z,25.10
2023-05-20T07:25:03.785Z,26.70
2023-05-20T07:27:37.085Z,27.00
2023-05-20T07:30:11.678Z,24.60
2023-05-20T07:32:46.165Z,27.40
2023-05-20T07:35:19.339Z,27.10
2023-05-20T07:37:52.845Z,25.90
2023-05-20T07:40:27.546Z,26.70
2023-05-20T07:43:00.499Z,27.10
2023-05-20T07:45:33.917Z,26.70
2023-05-20T07:50:38.532Z,26.20
2023-05-20T07:53:11.712Z,24.50
2023-05-20T07:55:45.106Z,28.10
2023-05-20T07:58:18.921Z,29.20
2023-05-20T08:00:53.318Z,26.00
2023-05-20T08:03:28.062Z,25.90
2023-05-20T08:06:12.755Z,27.40
2023-05-20T08:08:46.927Z,27.30
2023-05-20T08:11:26.360Z,26.30
2023-05-20T08:14:01.319Z,28.40
2023-05-20T08:16:38.477Z,26.60
2023-05-20T08:19:12.757Z,27.00
2023-05-20T08:21:47.789Z,26.50
2023-05-20T08:24:24.130Z,26.30
2023-05-20T08:26:58.278Z,29.00
2023-05-20T08:29:32.986Z,27.80
2023-05-20T08:32:07.067Z,24.60
2023-05-20T08:34:41.624Z,28.80
2023-05-20T08:37:15.565Z,27.00
2023-05-20T08:39:50.667Z,26.70
2023-05-20T08:42:27.622Z,27.20
2023-05-20T08:45:04.339Z,26.20
2023-05-20T08:47:39.172Z,26.90
2023-05-20T08:50:15.722Z,27.90
2023-05-20T08:52:51.134Z,26.90
2023-05-20T08:55:46.536Z,25.80
2023-05-20T08:58:20.540Z,26.20
2023-05-20T09:00:59.205Z,25.90
2023-05-20T09:03:33.627Z,25.80
2023-05-20T09:06:11.710Z,25.90
2023-05-20T09:08:46.564Z,27.00
2023-05-20T09:11:20.565Z,25.30
2023-05-20T09:13:54.925Z,26.30
2023-05-20T09:16:30.163Z,24.70
2023-05-20T09:19:05.080Z,26.70
2023-05-20T09:21:40.077Z,26.00
2023-05-20T09:24:14.313Z,25.70
2023-05-20T09:26:49.495Z,26.40
2023-05-20T09:29:25.941Z,24.80
2023-05-20T09:32:00.319Z,24.70
2023-05-20T09:34:35.074Z,25.90
2023-05-20T09:37:11.745Z,25.70
2023-05-20T09:39:54.587Z,24.80
2023-05-20T09:42:37.386Z,24.60
2023-05-20T09:45:12.852Z,25.60
2023-05-20T09:47:48.365Z,23.80
2023-05-20T09:50:24.247Z,23.40
2023-05-20T09:53:16.571Z,26.40
2023-05-20T09:55:50.946Z,23.90
2023-05-20T09:58:25.814Z,25.90
2023-05-20T10:01:00.272Z,27.10
2023-05-20T10:03:34.686Z,27.90
2023-05-20T10:06:24.492Z,26.30
2023-05-20T10:09:20.288Z,26.20
2023-05-20T10:12:05.253Z,27.40
2023-05-20T10:14:51.352Z,27.10
2023-05-20T10:17:34.120Z,26.50
2023-05-20T10:20:09.688Z,28.40
2023-05-20T10:22:45.436Z,27.70
2023-05-20T10:25:29.354Z,26.60
2023-05-20T10:28:13.189Z,28.50
2023-05-20T10:30:53.924Z,28.60
2023-05-20T10:33:29.741Z,25.40
2023-05-20T10:36:04.186Z,26.10
2023-05-20T10:38:37.150Z,27.70
2023-05-20T10:41:22.489Z,27.20
2023-05-20T10:44:05.497Z,27.20
2023-05-20T10:46:57.244Z,28.30
2023-05-20T10:49:37.575Z,28.00
2023-05-20T10:52:11.836Z,27.30
2023-05-20T10:54:51.515Z,27.30
2023-05-20T10:57:25.010Z,26.10
2023-05-20T10:59:58.302Z,27.60
2023-05-20T11:05:02.689Z,28.80
2023-05-20T11:07:35.921Z,28.40
2023-05-20T11:12:43.095Z,28.50
2023-05-20T11:15:18.482Z,30.00
2023-05-20T11:17:58.019Z,27.10
2023-05-20T11:20:30.991Z,28.00
2023-05-20T11:23:04.320Z,27.60
2023-05-20T11:28:10.062Z,28.40
2023-05-20T11:30:45.124Z,26.60
2023-05-20T11:33:19.180Z,27.20
2023-05-20T11:35:53.801Z,27.50
2023-05-20T11:38:28.355Z,27.80
2023-05-20T11:41:01.632Z,25.80
2023-05-20T11:46:08.825Z,27.50
2023-05-20T11:48:42.537Z,27.90
2023-05-20T11:51:15.367Z,25.40
2023-05-20T11:53:52.774Z,29.80
2023-05-20T11:56:26.629Z,28.30
2023-05-20T11:59:01.690Z,28.30
2023-05-20T12:01:38.178Z,30.40
2023-05-20T12:04:12.351Z,28.70
2023-05-20T12:06:46.331Z,27.80
2023-05-20T12:09:18.761Z,28.80
2023-05-20T12:11:51.577Z,29.30
2023-05-20T12:14:24.930Z,29.00
2023-05-20T12:16:57.881Z,29.30
2023-05-20T12:19:30.414Z,27.20
2023-05-20T12:22:04.252Z,27.50
2023-05-20T12:24:37.122Z,29.20
2023-05-20T12:27:11.733Z,27.30
2023-05-20T12:29:44.411Z,28.10
2023-05-20T12:32:18.726Z,27.20
2023-05-20T12:34:51.911Z,30.10
2023-05-20T12:39:55.337Z,27.50
2023-05-20T12:42:29.138Z,24.10
2023-05-20T12:45:01.748Z,26.40
2023-05-20T12:47:34.937Z,24.00
2023-05-20T12:50:08.365Z,25.20
2023-05-20T12:52:41.531Z,25.30
2023-05-20T12:57:48.851Z,25.20
2023-05-20T13:00:22.910Z,23.70
2023-05-20T13:02:55.874Z,25.30
2023-05-20T13:05:29.147Z,23.10
2023-05-20T13:08:02.398Z,23.80
2023-05-20T13:10:35.147Z,25.60
2023-05-20T13:15:39.412Z,22.80
2023-05-20T13:20:43.622Z,23.10
2023-05-20T13:23:16.632Z,22.40
2023-05-20T13:25:49.328Z,21.00
2023-05-20T13:28:23.050Z,23.20
2023-05-20T13:30:55.698Z,21.00
2023-05-20T13:33:28.852Z,20.30
2023-05-20T13:36:01.670Z,18.80
2023-05-20T13:38:36.556Z,20.70
2023-05-20T13:41:10.909Z,20.00
2023-05-20T13:43:44.127Z,19.30
2023-05-20T13:46:17.882Z,20.30
2023-05-20T13:48:52.596Z,21.50
2023-05-20T13:51:26.409Z,21.10
2023-05-20T13:53:59.321Z,21.20
2023-05-20T13:56:32.587Z,20.30
2023-05-20T14:01:37.869Z,18.20
2023-05-20T14:04:12.618Z,19.50
2023-05-20T14:06:45.409Z,20.90
2023-05-20T14:09:18.701Z,18.00
2023-05-20T14:11:55.328Z,17.50
2023-05-20T14:14:28.058Z,17.20
2023-05-20T14:17:00.526Z,18.10
2023-05-20T14:19:33.699Z,18.30
2023-05-20T14:22:06.583Z,16.50
2023-05-20T14:24:41.107Z,16.30
2023-05-20T14:27:14.593Z,16.20
2023-05-20T14:29:47.501Z,16.40
2023-05-20T14:32:20.973Z,15.30
2023-05-20T14:34:54.578Z,15.40
2023-05-20T14:37:28.427Z,15.90
2023-05-20T14:40:02.371Z,15.00
2023-05-20T14:42:35.009Z,15.20
2023-05-20T14:45:09.665Z,15.40
2023-05-20T14:47:42.258Z,15.00
2023-05-20T14:50:15.617Z,14.50
2023-05-20T14:55:19.406Z,15.70
2023-05-20T14:57:52.213Z,13.40
2023-05-20T15:00:26.592Z,15.20
2023-05-20T15:02:59.297Z,15.10
2023-05-20T15:05:32.149Z,13.80
2023-05-20T15:08:05.538Z,15.20
2023-05-20T15:10:38.599Z,14.50
2023-05-20T15:15:42.254Z,14.40
2023-05-20T15:18:15.376Z,14.30
2023-05-20T15:20:48.425Z,13.90
2023-05-20T15:23:21.131Z,13.50
2023-05-20T15:25:54.389Z,13.60
2023-05-20T15:30:59.550Z,13.70
2023-05-20T15:33:33.592Z,13.90
2023-05-20T15:36:07.468Z,14.40
2023-05-20T15:38:40.292Z,13.80
2023-05-20T15:41:14.433Z,13.80
2023-05-20T15:43:46.979Z,13.60
2023-05-20T15:46:20.303Z,13.80
2023-05-20T15:48:55.355Z,13.50
2023-05-20T15:51:28.306Z,12.80
2023-05-20T15:56:33.018Z,12.40
2023-05-20T15:59:05.596Z,12.70
2023-05-20T16:01:39.760Z,12.40
2023-05-20T16:04:13.356Z,11.90
2023-05-20T16:09:17.156Z,11.80
2023-05-20T16:11:50.173Z,11.90
2023-05-20T16:16:53.843Z,12.90
2023-05-20T16:19:26.933Z,11.90
2023-05-20T16:21:59.768Z,11.30
2023-05-20T16:24:32.404Z,10.60
2023-05-20T16:27:06.440Z,11.20
2023-05-20T16:29:40.273Z,9.80
2023-05-20T16:32:16.295Z,10.30
2023-05-20T16:34:51.232Z,10.60
2023-05-20T16:37:26.094Z,11.00
2023-05-20T16:39:59.416Z,10.60
2023-05-20T16:42:32.517Z,11.00
2023-05-20T16:45:05.050Z,10.30
2023-05-20T16:47:38.483Z,11.00
2023-05-20T16:50:13.131Z,11.00
2023-05-20T16:52:46.168Z,10.70
2023-05-20T16:55:19.481Z,10.90
2023-05-20T16:57:52.289Z,10.30
2023-05-20T17:00:24.880Z,8.30
2023-05-20T17:02:57.944Z,7.80
2023-05-20T17:05:30.977Z,7.10
2023-05-20T17:08:04.571Z,7.40
2023-05-20T17:10:37.212Z,6.70
2023-05-20T17:13:09.791Z,7.00
2023-05-20T17:15:42.633Z,7.30
2023-05-20T17:18:16.009Z,6.40
2023-05-20T17:20:48.832Z,7.30
2023-05-20T17:23:22.124Z,7.30
2023-05-20T17:25:55.302Z,7.60
2023-05-20T17:28:28.778Z,6.80
2023-05-20T17:31:01.609Z,7.60
2023-05-20T17:33:37.452Z,7.60
2023-05-20T17:36:10.892Z,8.30
2023-05-20T17:38:43.652Z,8.30
2023-05-20T17:41:18.317Z,8.30
2023-05-20T17:43:51.339Z,7.70
2023-05-20T17:46:24.335Z,7.80
2023-05-20T17:48:58.235Z,8.30
2023-05-20T17:51:32.422Z,8.30
2023-05-20T17:54:05.255Z,8.00
2023-05-20T17:56:38.137Z,8.50
2023-05-20T17:59:10.996Z,9.20
2023-05-20T18:01:43.647Z,7.90
2023-05-20T18:04:17.262Z,8.50
2023-05-20T18:06:51.700Z,7.70
2023-05-20T18:09:27.363Z,8.20
2023-05-20T18:12:00.064Z,7.80
2023-05-20T18:14:32.881Z,9.70
2023-05-20T18:17:05.577Z,8.40
2023-05-20T18:19:38.560Z,8.80
2023-05-20T18:22:11.269Z,8.60
2023-05-20T18:24:44.514Z,9.30
2023-05-20T18:27:17.056Z,9.50
2023-05-20T18:29:50.313Z,8.50
2023-05-20T18:34:58.588Z,9.20
2023-05-20T18:37:31.415Z,9.10
2023-05-20T18:40:07.163Z,9.40
2023-05-20T18:42:39.706Z,9.90
2023-05-20T18:45:14.040Z,9.60
2023-05-20T18:47:46.610Z,10.30
2023-05-20T18:50:20.568Z,9.60
2023-05-20T18:52:54.378Z,10.20
2023-05-20T18:55:28.641Z,10.20
2023-05-20T18:58:01.292Z,10.70
2023-05-20T19:00:34.569Z,10.50
2023-05-20T19:05:38.684Z,10.70
2023-05-20T19:08:12.398Z,10.20
2023-05-20T19:13:16.536Z,10.90
2023-05-20T19:15:49.789Z,10.60
2023-05-20T19:18:23.039Z,11.40
2023-05-20T19:20:56.252Z,10.40
2023-05-20T19:23:28.953Z,11.20
2023-05-20T19:26:01.826Z,11.30
2023-05-20T19:28:34.326Z,10.80
2023-05-20T19:31:07.459Z,11.20
2023-05-20T19:33:40.674Z,11.20
2023-05-20T19:38:45.253Z,10.30
2023-05-20T19:41:18.134Z,10.70
2023-05-20T19:43:50.718Z,11.10
2023-05-20T19:46:24.570Z,10.80
2023-05-20T19:48:58.046Z,10.80
2023-05-20T19:51:31.767Z,11.10
2023-05-20T19:54:05.169Z,11.00
2023-05-20T19:56:40.345Z,11.00
2023-05-20T19:59:23.258Z,12.30
2023-05-20T20:01:58.099Z,11.90
2023-05-20T20:04:31.366Z,10.60
2023-05-20T20:07:07.873Z,10.70
2023-05-20T20:09:42.444Z,10.70
2023-05-20T20:12:15.085Z,10.60
2023-05-20T20:14:47.952Z,11.90
2023-05-20T20:17:22.769Z,10.40
2023-05-20T20:19:59.184Z,10.10
2023-05-20T20:22:31.992Z,11.40
2023-05-20T20:25:04.725Z,10.80
2023-05-20T20:27:39.080Z,11.60
2023-05-20T20:30:13.726Z,12.00
2023-05-20T20:32:49.711Z,11.50
2023-05-20T20:35:24.829Z,11.60
2023-05-20T20:37:58.893Z,11.60
2023-05-20T20:40:35.099Z,11.40
2023-05-20T20:43:11.330Z,10.90
2023-05-20T20:45:44.832Z,11.30
2023-05-20T20:50:51.738Z,10.90
2023-05-20T20:53:24.650Z,12.20
2023-05-20T20:55:57.301Z,11.10
2023-05-20T20:58:35.142Z,11.80
2023-05-20T21:01:10.348Z,10.80
2023-05-20T21:03:44.952Z,11.80
2023-05-20T21:06:17.739Z,11.00
2023-05-20T21:08:50.283Z,10.80
2023-05-20T21:11:26.442Z,12.10
2023-05-20T21:13:59.232Z,10.70
2023-05-20T21:16:32.032Z,12.20
2023-05-20T21:19:05.244Z,11.20
2023-05-20T21:21:37.999Z,11.10
2023-05-20T21:24:11.355Z,10.90
2023-05-20T21:26:44.012Z,10.90
2023-05-20T21:29:16.735Z,11.90
2023-05-20T21:31:50.289Z,12.10
2023-05-20T21:34:22.920Z,10.40
2023-05-20T21:36:56.243Z,12.00
2023-05-20T21:42:00.729Z,10.20
2023-05-20T21:47:06.401Z,10.40
2023-05-20T21:49:39.299Z,11.10
2023-05-20T21:52:13.057Z,11.60
2023-05-20T21:54:46.319Z,10.60
2023-05-20T21:57:19.015Z,11.00
2023-05-20T21:59:51.772Z,10.70
2023-05-20T22:02:24.981Z,10.90
2023-05-20T22:04:58.219Z,10.40
2023-05-20T22:07:33.123Z,10.40
2023-05-20T22:10:09.474Z,10.20
2023-05-20T22:12:42.870Z,10.00
2023-05-20T22:15:15.919Z,11.00
2023-05-20T22:17:49.065Z,10.20
2023-05-20T22:20:21.990Z,9.60
2023-05-20T22:22:54.585Z,10.70
2023-05-20T22:25:30.092Z,10.60
2023-05-20T22:28:04.901Z,10.40
2023-05-20T22:30:38.743Z,9.90
2023-05-20T22:33:11.958Z,9.90
2023-05-20T22:35:44.726Z,10.10
2023-05-20T22:38:17.352Z,9.90
2023-05-20T22:40:50.109Z,9.50
2023-05-20T22:43:23.832Z,9.90
2023-05-20T22:45:56.924Z,9.30
2023-05-20T22:48:30.188Z,10.60
2023-05-20T22:53:34.283Z,9.50
2023-05-20T22:56:08.031Z,9.50
2023-05-20T22:58:40.578Z,8.90
2023-05-20T23:01:17.090Z,8.80
2023-05-20T23:03:50.331Z,10.00
2023-05-20T23:06:23.009Z,8.60
2023-05-20T23:08:56.719Z,9.10
2023-05-20T23:11:31.912Z,9.30
2023-05-20T23:14:04.536Z,9.30
2023-05-20T23:16:40.488Z,8.30
2023-05-20T23:19:13.249Z,9.60
2023-05-20T23:21:46.080Z,8.60
2023-05-20T23:24:18.552Z,9.10
2023-05-20T23:26:51.591Z,9.40
2023-05-20T23:29:24.419Z,9.30
2023-05-20T23:31:57.150Z,9.20
2023-05-20T23:34:31.255Z,9.20
2023-05-20T23:37:04.420Z,9.10
2023-05-20T23:39:36.891Z,10.60
2023-05-20T23:42:09.772Z,9.00
2023-05-20T23:44:42.229Z,9.60
2023-05-20T23:47:15.066Z,9.80
2023-05-20T23:49:49.533Z,9.80
2023-05-20T23:52:22.167Z,10.40
2023-05-20T23:54:54.938Z,9.90
2023-05-20T23:57:28.171Z,10.20
